createdAt,value
2022-10-01T00:00:56.455Z,100354.69
2022-10-01T00:03:50.639Z,100356.65
2022-10-01T00:06:32.329Z,100359.01
2022-10-01T00:09:14.022Z,100362.52
2022-10-01T00:11:56.941Z,100360.91
2022-10-01T00:14:39.603Z,100362.95
2022-10-01T00:17:21.311Z,100361.73
2022-10-01T00:20:14.019Z,100365.44
2022-10-01T00:22:56.301Z,100362.08
2022-10-01T00:25:38.914Z,100358.74
2022-10-01T00:28:21.097Z,100361.12
2022-10-01T00:31:02.806Z,100357.14
2022-10-01T00:33:44.906Z,100362.20
2022-10-01T00:36:27.313Z,100366.60
2022-10-01T00:39:11.378Z,100359.17
2022-10-01T00:41:53.258Z,100365.38
2022-10-01T00:44:37.813Z,100364.60
2022-10-01T00:47:37.631Z,100362.98
2022-10-01T00:50:26.474Z,100359.28
2022-10-01T00:53:12.428Z,100360.30
2022-10-01T00:55:57.243Z,100359.93
2022-10-01T00:58:39.753Z,100362.80
2022-10-01T01:01:22.470Z,100361.57
2022-10-01T01:04:16.473Z,100362.88
2022-10-01T01:07:02.748Z,100359.70
2022-10-01T01:09:47.306Z,100358.06
2022-10-01T01:12:45.583Z,100358.61
2022-10-01T01:15:51.579Z,100357.99
2022-10-01T01:18:52.589Z,100358.69
2022-10-01T01:21:44.521Z,100358.73
2022-10-01T01:24:56.112Z,100361.44
2022-10-01T01:27:51.276Z,100356.80
2022-10-01T01:30:34.240Z,100356.40
2022-10-01T01:33:20.947Z,100352.45
2022-10-01T01:36:32.405Z,100351.13
2022-10-01T01:39:17.302Z,100353.25
2022-10-01T01:42:05.420Z,100346.48
2022-10-01T01:44:49.389Z,100347.50
2022-10-01T01:47:34.663Z,100344.34
2022-10-01T01:50:17.179Z,100343.57
2022-10-01T01:53:00.092Z,100344.87
2022-10-01T01:55:45.445Z,100343.01
2022-10-01T01:58:28.391Z,100339.50
2022-10-01T02:01:35.599Z,100332.86
2022-10-01T02:04:26.179Z,100335.02
2022-10-01T02:07:45.453Z,100334.52
2022-10-01T02:10:39.224Z,100330.52
2022-10-01T02:13:35.456Z,100323.52
2022-10-01T02:16:36.091Z,100320.05
2022-10-01T02:19:30.786Z,100314.09
2022-10-01T02:22:19.974Z,100311.56
2022-10-01T02:25:05.341Z,100306.86
2022-10-01T02:27:55.947Z,100307.67
2022-10-01T02:30:38.644Z,100306.08
2022-10-01T02:33:25.866Z,100301.91
2022-10-01T02:36:10.281Z,100298.58
2022-10-01T02:38:53.445Z,100293.11
2022-10-01T02:41:36.865Z,100295.64
2022-10-01T02:44:23.484Z,100296.95
2022-10-01T02:47:17.770Z,100291.42
2022-10-01T02:50:01.332Z,100290.67
2022-10-01T02:52:53.040Z,100288.77
2022-10-01T02:55:39.654Z,100283.89
2022-10-01T02:58:21.365Z,100282.68
2022-10-01T03:01:03.779Z,100281.54
2022-10-01T03:03:46.142Z,100275.09
2022-10-01T03:06:28.345Z,100274.15
2022-10-01T03:09:10.038Z,100274.20
2022-10-01T03:11:51.727Z,100274.99
2022-10-01T03:14:34.239Z,100268.92
2022-10-01T03:17:16.952Z,100269.05
2022-10-01T03:19:58.645Z,100264.60
2022-10-01T03:22:40.334Z,100265.65
2022-10-01T03:25:21.950Z,100262.88
2022-10-01T03:28:06.451Z,100262.27
2022-10-01T03:30:48.274Z,100258.06
2022-10-01T03:33:29.968Z,100255.19
2022-10-01T03:36:11.699Z,100252.23
2022-10-01T03:38:53.449Z,100253.52
2022-10-01T03:41:35.346Z,100254.11
2022-10-01T03:44:17.754Z,100254.46
2022-10-01T03:46:59.853Z,100255.71
2022-10-01T03:49:41.543Z,100249.55
2022-10-01T03:52:23.235Z,100248.88
2022-10-01T03:55:06.052Z,100245.27
2022-10-01T03:57:47.947Z,100246.84
2022-10-01T04:00:29.639Z,100242.49
2022-10-01T04:03:11.462Z,100243.94
2022-10-01T04:05:53.123Z,100239.84
2022-10-01T04:08:34.917Z,100238.88
2022-10-01T04:11:16.813Z,100236.86
2022-10-01T04:13:58.504Z,100238.75
2022-10-01T04:16:40.222Z,100237.41
2022-10-01T04:19:21.819Z,100242.36
2022-10-01T04:22:03.678Z,100237.77
2022-10-01T04:24:45.284Z,100241.46
2022-10-01T04:27:26.959Z,100241.66
2022-10-01T04:30:10.395Z,100241.97
2022-10-01T04:32:52.080Z,100241.27
2022-10-01T04:35:33.975Z,100241.02
2022-10-01T04:38:17.305Z,100240.98
2022-10-01T04:40:59.098Z,100241.17
2022-10-01T04:43:41.301Z,100244.92
2022-10-01T04:46:23.159Z,100239.77
2022-10-01T04:49:04.991Z,100238.60
2022-10-01T04:51:46.562Z,100236.08
2022-10-01T04:54:28.270Z,100247.02
2022-10-01T04:57:09.960Z,100246.70
2022-10-01T04:59:51.651Z,100246.59
2022-10-01T05:02:34.749Z,100247.45
2022-10-01T05:05:18.834Z,100245.82
2022-10-01T05:08:00.923Z,100250.85
2022-10-01T05:10:42.882Z,100250.55
2022-10-01T05:13:27.889Z,100253.48
2022-10-01T05:16:10.009Z,100256.67
2022-10-01T05:18:51.680Z,100254.92
2022-10-01T05:21:33.587Z,100254.38
2022-10-01T05:24:16.393Z,100257.55
2022-10-01T05:26:58.698Z,100255.58
2022-10-01T05:29:41.721Z,100250.55
2022-10-01T05:32:23.531Z,100249.79
2022-10-01T05:35:07.242Z,100248.13
2022-10-01T05:37:53.144Z,100247.75
2022-10-01T05:40:34.832Z,100246.46
2022-10-01T05:43:16.422Z,100247.75
2022-10-01T05:46:02.172Z,100244.18
2022-10-01T05:48:44.001Z,100241.11
2022-10-01T05:51:25.999Z,100233.92
2022-10-01T05:54:08.509Z,100229.95
2022-10-01T05:56:50.611Z,100227.75
2022-10-01T05:59:32.347Z,100227.45
2022-10-01T06:02:14.062Z,100221.48
2022-10-01T06:04:55.990Z,100223.54
2022-10-01T06:07:37.682Z,100219.95
2022-10-01T06:10:20.934Z,100217.55
2022-10-01T06:13:06.535Z,100218.33
2022-10-01T06:15:48.287Z,100214.40
2022-10-01T06:18:29.987Z,100216.05
2022-10-01T06:21:11.665Z,100217.90
2022-10-01T06:23:53.765Z,100219.77
2022-10-01T06:26:36.684Z,100217.40
2022-10-01T06:29:20.732Z,100212.55
2022-10-01T06:32:02.388Z,100211.24
2022-10-01T06:34:44.215Z,100209.75
2022-10-01T06:37:26.034Z,100210.24
2022-10-01T06:40:08.415Z,100203.32
2022-10-01T06:42:55.996Z,100204.64
2022-10-01T06:45:41.306Z,100197.20
2022-10-01T06:48:23.628Z,100195.55
2022-10-01T06:51:06.037Z,100191.65
2022-10-01T06:53:47.725Z,100190.09
2022-10-01T06:56:29.313Z,100185.24
2022-10-01T06:59:11.006Z,100179.44
2022-10-01T07:01:56.396Z,100177.11
2022-10-01T07:04:38.585Z,100172.52
2022-10-01T07:07:20.185Z,100173.29
2022-10-01T07:10:02.798Z,100166.96
2022-10-01T07:12:44.579Z,100162.27
2022-10-01T07:15:26.166Z,100159.86
2022-10-01T07:18:11.237Z,100158.72
2022-10-01T07:20:52.928Z,100155.48
2022-10-01T07:23:34.620Z,100154.58
2022-10-01T07:26:16.312Z,100153.17
2022-10-01T07:28:58.000Z,100156.30
2022-10-01T07:31:39.735Z,100144.48
2022-10-01T07:34:22.510Z,100146.10
2022-10-01T07:37:04.610Z,100141.56
2022-10-01T07:39:46.299Z,100138.80
2022-10-01T07:42:28.298Z,100139.98
2022-10-01T07:45:11.221Z,100139.45
2022-10-01T07:48:00.152Z,100136.15
2022-10-01T07:50:46.068Z,100135.69
2022-10-01T07:53:28.375Z,100134.23
2022-10-01T07:56:09.990Z,100125.52
2022-10-01T07:58:55.648Z,100125.67
2022-10-01T08:01:38.373Z,100118.44
2022-10-01T08:04:40.431Z,100108.98
2022-10-01T08:07:22.125Z,100110.31
2022-10-01T08:10:04.806Z,100109.45
2022-10-01T08:12:47.040Z,100101.58
2022-10-01T08:15:29.400Z,100099.08
2022-10-01T08:18:12.273Z,100097.70
2022-10-01T08:20:53.956Z,100085.71
2022-10-01T08:23:36.567Z,100076.98
2022-10-01T08:26:18.259Z,100075.86
2022-10-01T08:29:00.054Z,100073.59
2022-10-01T08:31:41.879Z,100069.34
2022-10-01T08:34:23.843Z,100066.67
2022-10-01T08:37:05.533Z,100066.09
2022-10-01T08:39:47.237Z,100063.42
2022-10-01T08:42:35.634Z,100064.29
2022-10-01T08:45:43.364Z,100057.89
2022-10-01T08:48:38.386Z,100053.99
2022-10-01T08:51:40.038Z,100045.66
2022-10-01T08:54:46.510Z,100040.61
2022-10-01T08:57:32.500Z,100039.55
2022-10-01T09:00:16.649Z,100034.91
2022-10-01T09:03:04.601Z,100036.73
2022-10-01T09:05:58.592Z,100027.61
2022-10-01T09:08:52.842Z,100027.88
2022-10-01T09:11:59.323Z,100018.52
2022-10-01T09:15:08.663Z,100013.39
2022-10-01T09:18:18.616Z,100010.10
2022-10-01T09:21:00.717Z,100004.23
2022-10-01T09:23:58.279Z,100004.71
2022-10-01T09:26:45.192Z,100000.30
2022-10-01T09:29:40.094Z,99993.90
2022-10-01T09:32:30.488Z,99991.35
2022-10-01T09:35:21.005Z,99987.83
2022-10-01T09:38:12.524Z,99974.02
2022-10-01T09:40:55.810Z,99974.39
2022-10-01T09:43:39.850Z,99972.30
2022-10-01T09:46:21.605Z,99971.61
2022-10-01T09:49:28.046Z,99969.47
2022-10-01T09:52:18.482Z,99969.69
2022-10-01T09:55:06.488Z,99967.27
2022-10-01T09:57:53.998Z,99967.20
2022-10-01T10:00:37.995Z,99961.15
2022-10-01T10:03:31.093Z,99962.92
2022-10-01T10:06:14.134Z,99960.16
2022-10-01T10:08:58.151Z,99961.61
2022-10-01T10:11:42.891Z,99956.09
2022-10-01T10:14:31.801Z,99951.95
2022-10-01T10:17:16.946Z,99947.23
2022-10-01T10:19:59.139Z,99947.55
2022-10-01T10:22:40.867Z,99948.58
2022-10-01T10:25:24.709Z,99944.33
2022-10-01T10:28:20.221Z,99938.58
2022-10-01T10:31:02.137Z,99930.66
2022-10-01T10:33:55.793Z,99926.89
2022-10-01T10:40:53.381Z,99910.48
2022-10-01T10:43:38.327Z,99908.48
2022-10-01T10:46:23.532Z,99907.20
2022-10-01T10:49:18.563Z,99900.66
2022-10-01T10:52:01.856Z,99894.23
2022-10-01T10:54:47.956Z,99893.41
2022-10-01T10:57:34.661Z,99886.48
2022-10-01T11:00:26.188Z,99883.94
2022-10-01T11:03:15.019Z,99885.86
2022-10-01T11:06:09.119Z,99881.44
2022-10-01T11:09:02.599Z,99872.12
2022-10-01T11:12:09.570Z,99869.80
2022-10-01T11:14:57.610Z,99865.30
2022-10-01T11:17:55.639Z,99866.20
2022-10-01T11:21:01.032Z,99864.15
2022-10-01T11:24:04.020Z,99856.98
2022-10-01T11:27:11.678Z,99847.98
2022-10-01T11:30:26.819Z,99842.56
2022-10-01T11:33:18.009Z,99838.86
2022-10-01T11:36:21.510Z,99831.14
2022-10-01T11:39:10.259Z,99827.88
2022-10-01T11:41:59.434Z,99827.61
2022-10-01T11:45:03.606Z,99820.39
2022-10-01T11:47:54.255Z,99811.05
2022-10-01T11:50:48.549Z,99808.15
2022-10-01T11:53:45.100Z,99801.05
2022-10-01T11:56:54.212Z,99802.11
2022-10-01T11:59:50.122Z,99795.94
2022-10-01T12:02:39.098Z,99788.49
2022-10-01T12:05:29.314Z,99781.16
2022-10-01T12:08:22.228Z,99784.31
2022-10-01T12:11:16.428Z,99787.33
2022-10-01T12:14:09.076Z,99785.10
2022-10-01T12:17:04.795Z,99785.03
2022-10-01T12:19:53.334Z,99778.36
2022-10-01T12:22:39.030Z,99776.79
2022-10-01T12:25:26.558Z,99772.00
2022-10-01T12:28:21.471Z,99768.66
2022-10-01T12:31:11.026Z,99762.02
2022-10-01T12:34:06.652Z,99764.33
2022-10-01T12:37:41.798Z,99756.33
2022-10-01T12:40:40.043Z,99750.16
2022-10-01T12:43:40.131Z,99745.83
2022-10-01T12:46:52.637Z,99740.04
2022-10-01T12:50:05.841Z,99740.41
2022-10-01T12:53:02.998Z,99737.11
2022-10-01T12:55:55.130Z,99736.17
2022-10-01T12:59:06.621Z,99728.50
2022-10-01T13:02:10.890Z,99722.86
2022-10-01T13:05:24.683Z,99717.23
2022-10-01T13:08:27.878Z,99718.52
2022-10-01T13:11:28.963Z,99710.98
2022-10-01T13:14:19.071Z,99708.24
2022-10-01T13:17:18.625Z,99700.52
2022-10-01T13:20:09.223Z,99700.91
2022-10-01T13:23:13.032Z,99706.02
2022-10-01T13:26:23.403Z,99697.90
2022-10-01T13:29:27.072Z,99695.86
2022-10-01T13:32:26.510Z,99694.88
2022-10-01T13:35:25.816Z,99691.83
2022-10-01T13:38:15.000Z,99687.34
2022-10-01T13:41:05.270Z,99681.73
2022-10-01T13:43:59.351Z,99681.19
2022-10-01T13:46:53.856Z,99679.86
2022-10-01T13:49:37.889Z,99676.91
2022-10-01T13:52:21.136Z,99670.80
2022-10-01T13:55:03.319Z,99668.27
2022-10-01T13:57:44.971Z,99663.01
2022-10-01T14:00:27.673Z,99658.42
2022-10-01T14:03:51.093Z,99654.77
2022-10-01T14:06:35.183Z,99646.64
2022-10-01T14:09:26.455Z,99643.20
2022-10-01T14:12:31.800Z,99637.50
2022-10-01T14:15:36.150Z,99633.40
2022-10-01T14:18:24.284Z,99627.27
2022-10-01T14:21:50.910Z,99628.36
2022-10-01T14:25:10.284Z,99620.64
2022-10-01T14:28:18.614Z,99610.23
2022-10-01T14:31:15.670Z,99607.20
2022-10-01T14:34:32.054Z,99613.88
2022-10-01T14:37:18.279Z,99624.25
2022-10-01T14:40:01.683Z,99632.19
2022-10-01T14:42:44.000Z,99654.04
2022-10-01T14:45:25.784Z,99667.77
2022-10-01T14:48:10.031Z,99665.77
2022-10-01T14:50:57.618Z,99677.02
2022-10-01T14:53:43.141Z,99686.05
2022-10-01T14:56:28.007Z,99686.42
2022-10-01T14:59:20.143Z,99682.56
2022-10-01T15:02:04.684Z,99677.21
2022-10-01T15:04:51.887Z,99670.61
2022-10-01T15:07:35.865Z,99669.66
2022-10-01T15:10:20.602Z,99671.59
2022-10-01T15:13:02.627Z,99673.91
2022-10-01T15:15:44.521Z,99673.17
2022-10-01T15:18:27.036Z,99668.06
2022-10-01T15:21:18.041Z,99666.53
2022-10-01T15:23:59.943Z,99663.92
2022-10-01T15:26:41.709Z,99658.97
2022-10-01T15:29:24.157Z,99652.01
2022-10-01T15:32:07.161Z,99654.23
2022-10-01T15:34:53.254Z,99655.67
2022-10-01T15:37:37.172Z,99656.84
2022-10-01T15:40:30.831Z,99655.49
2022-10-01T15:43:24.544Z,99656.25
2022-10-01T15:46:20.181Z,99656.08
2022-10-01T15:49:13.218Z,99657.77
2022-10-01T15:52:19.441Z,99655.31
2022-10-01T15:55:01.178Z,99657.29
2022-10-01T15:57:45.117Z,99653.42
2022-10-01T16:00:29.761Z,99649.90
2022-10-01T16:03:19.986Z,99651.08
2022-10-01T16:06:04.131Z,99647.50
2022-10-01T16:09:05.202Z,99644.86
2022-10-01T16:11:59.141Z,99642.92
2022-10-01T16:14:44.233Z,99639.60
2022-10-01T16:17:31.431Z,99638.96
2022-10-01T16:20:17.015Z,99634.66
2022-10-01T16:23:32.137Z,99638.11
2022-10-01T16:26:38.640Z,99632.67
2022-10-01T16:29:26.205Z,99637.05
2022-10-01T16:32:13.688Z,99637.20
2022-10-01T16:35:15.785Z,99635.69
2022-10-01T16:37:58.297Z,99640.21
2022-10-01T16:40:43.581Z,99637.67
2022-10-01T16:43:25.420Z,99631.05
2022-10-01T16:46:07.205Z,99632.52
2022-10-01T16:48:53.770Z,99629.93
2022-10-01T16:51:35.559Z,99638.03
2022-10-01T16:54:27.591Z,99637.59
2022-10-01T16:57:14.112Z,99636.70
2022-10-01T17:00:03.277Z,99633.52
2022-10-01T17:02:47.509Z,99636.45
2022-10-01T17:05:37.380Z,99632.94
2022-10-01T17:08:19.869Z,99635.83
2022-10-01T17:11:04.379Z,99638.03
2022-10-01T17:13:49.201Z,99631.65
2022-10-01T17:16:31.058Z,99634.81
2022-10-01T17:19:13.987Z,99640.71
2022-10-01T17:21:56.041Z,99635.77
2022-10-01T17:24:38.479Z,99639.23
2022-10-01T17:27:20.872Z,99637.96
2022-10-01T17:30:03.786Z,99641.02
2022-10-01T17:32:46.666Z,99642.27
2022-10-01T17:35:29.820Z,99640.91
2022-10-01T17:38:13.321Z,99641.39
2022-10-01T17:40:56.856Z,99642.88
2022-10-01T17:43:41.752Z,99646.02
2022-10-01T17:46:23.910Z,99644.08
2022-10-01T17:49:08.514Z,99643.89
2022-10-01T17:51:50.718Z,99643.91
2022-10-01T17:54:34.155Z,99645.15
2022-10-01T17:57:16.289Z,99645.45
2022-10-01T17:59:58.705Z,99651.12
2022-10-01T18:02:42.872Z,99654.55
2022-10-01T18:05:25.211Z,99656.47
2022-10-01T18:08:08.989Z,99656.68
2022-10-01T18:10:52.455Z,99658.38
2022-10-01T18:13:39.104Z,99657.30
2022-10-01T18:16:21.974Z,99659.80
2022-10-01T18:22:13.627Z,99655.30
2022-10-01T18:24:56.987Z,99653.40
2022-10-01T18:27:39.702Z,99654.64
2022-10-01T18:30:22.004Z,99652.80
2022-10-01T18:33:04.211Z,99652.36
2022-10-01T18:35:51.631Z,99651.81
2022-10-01T18:38:35.667Z,99653.38
2022-10-01T18:41:39.206Z,99654.58
2022-10-01T18:44:21.735Z,99657.30
2022-10-01T18:47:24.271Z,99658.34
2022-10-01T18:50:35.539Z,99655.52
2022-10-01T18:53:36.703Z,99658.77
2022-10-01T18:56:29.315Z,99657.55
2022-10-01T18:59:32.676Z,99659.65
2022-10-01T19:02:36.050Z,99655.73
2022-10-01T19:05:25.559Z,99654.42
2022-10-01T19:08:11.560Z,99653.21
2022-10-01T19:11:08.413Z,99654.35
2022-10-01T19:14:28.450Z,99656.38
2022-10-01T19:17:24.349Z,99654.30
2022-10-01T19:20:45.905Z,99659.44
2022-10-01T19:24:07.621Z,99659.69
2022-10-01T19:27:09.800Z,99660.67
2022-10-01T19:29:58.115Z,99660.90
2022-10-01T19:32:59.397Z,99664.48
2022-10-01T19:35:47.029Z,99667.02
2022-10-01T19:38:41.007Z,99668.86
2022-10-01T19:41:44.103Z,99673.59
2022-10-01T19:44:40.979Z,99673.95
2022-10-01T19:47:45.120Z,99672.65
2022-10-01T19:50:50.951Z,99676.20
2022-10-01T19:53:37.652Z,99675.89
2022-10-01T19:56:26.283Z,99676.48
2022-10-01T19:59:15.689Z,99684.60
2022-10-01T20:02:25.823Z,99687.39
2022-10-01T20:05:16.528Z,99689.26
2022-10-01T20:08:10.286Z,99690.77
2022-10-01T20:11:28.128Z,99691.70
2022-10-01T20:15:01.585Z,99693.25
2022-10-01T20:17:51.301Z,99688.52
2022-10-01T20:21:07.116Z,99689.73
2022-10-01T20:23:55.093Z,99693.84
2022-10-01T20:27:17.912Z,99698.73
2022-10-01T20:30:07.617Z,99700.48
2022-10-01T20:32:57.705Z,99700.70
2022-10-01T20:36:15.378Z,99704.84
2022-10-01T20:39:37.701Z,99711.51
2022-10-01T20:42:30.691Z,99716.52
2022-10-01T20:45:26.706Z,99716.39
2022-10-01T20:48:23.754Z,99715.82
2022-10-01T20:51:25.943Z,99715.48
2022-10-01T20:54:33.951Z,99719.48
2022-10-01T20:57:25.881Z,99721.20
2022-10-01T21:00:24.213Z,99719.11
2022-10-01T21:03:34.414Z,99717.36
2022-10-01T21:06:27.069Z,99720.66
2022-10-01T21:09:26.246Z,99719.19
2022-10-01T21:12:20.720Z,99723.92
2022-10-01T21:15:06.509Z,99730.28
2022-10-01T21:18:19.044Z,99734.16
2022-10-01T21:21:21.796Z,99737.20
2022-10-01T21:24:21.869Z,99735.48
2022-10-01T21:27:22.034Z,99740.83
2022-10-01T21:30:35.972Z,99739.23
2022-10-01T21:33:53.470Z,99742.38
2022-10-01T21:36:51.853Z,99745.43
2022-10-01T21:40:00.884Z,99746.05
2022-10-01T21:42:53.194Z,99746.45
2022-10-01T21:45:54.840Z,99749.90
2022-10-01T21:49:08.526Z,99750.34
2022-10-01T21:52:02.809Z,99753.77
2022-10-01T21:55:04.571Z,99754.86
2022-10-01T21:58:02.339Z,99752.98
2022-10-01T22:00:55.229Z,99748.36
2022-10-01T22:04:23.885Z,99749.64
2022-10-01T22:07:31.998Z,99750.28
2022-10-01T22:10:35.808Z,99754.70
2022-10-01T22:13:25.178Z,99761.71
2022-10-01T22:16:13.838Z,99760.77
2022-10-01T22:18:58.161Z,99760.48
2022-10-01T22:21:46.211Z,99765.79
2022-10-01T22:24:33.967Z,99765.62
2022-10-01T22:27:33.540Z,99770.64
2022-10-01T22:30:23.452Z,99771.50
2022-10-01T22:33:31.457Z,99771.66
2022-10-01T22:36:24.983Z,99774.21
2022-10-01T22:39:23.921Z,99782.15
2022-10-01T22:42:30.506Z,99784.92
2022-10-01T22:45:14.766Z,99784.76
2022-10-01T22:48:19.477Z,99794.84
2022-10-01T22:51:19.907Z,99794.23
2022-10-01T22:54:22.180Z,99798.27
2022-10-01T22:57:31.932Z,99800.76
2022-10-01T23:00:15.465Z,99805.54
2022-10-01T23:03:23.496Z,99805.45
2022-10-01T23:06:11.605Z,99808.98
2022-10-01T23:09:07.847Z,99810.20
2022-10-01T23:11:55.988Z,99816.84
2022-10-01T23:14:57.953Z,99817.48
2022-10-01T23:17:46.245Z,99819.02
2022-10-01T23:20:34.853Z,99823.39
2022-10-01T23:23:33.091Z,99824.61
2022-10-01T23:26:23.123Z,99826.11
2022-10-01T23:29:23.752Z,99827.85
2022-10-01T23:32:13.431Z,99830.52
2022-10-01T23:35:04.892Z,99838.61
2022-10-01T23:38:10.605Z,99843.64
2022-10-01T23:40:52.504Z,99852.89
2022-10-01T23:43:48.328Z,99854.14
2022-10-01T23:46:33.881Z,99856.83
2022-10-01T23:49:17.161Z,99855.96
2022-10-01T23:52:11.008Z,99853.43
2022-10-01T23:55:17.999Z,99856.90
2022-10-01T23:58:03.336Z,99863.39
